sensor_id;sensor_type;location;lat;lon;timestamp;pressure;altitude;pressure_sealevel;temperature;humidity
68476;BME280;55464;48.266;14.188;2024-02-28T00:02:00;97521.63;;;11.40;53.06
68476;BME280;55464;48.266;14.188;2024-02-28T00:04:25;97520.66;;;11.48;53.10
68476;BME280;55464;48.266;14.188;2024-02-28T00:06:50;97513.09;;;11.45;52.84
68476;BME280;55464;48.266;14.188;2024-02-28T00:09:16;97507.84;;;11.40;52.38
68476;BME280;55464;48.266;14.188;2024-02-28T00:11:45;97508.81;;;11.32;52.79
68476;BME280;55464;48.266;14.188;2024-02-28T00:14:12;97523.38;;;11.32;53.19
68476;BME280;55464;48.266;14.188;2024-02-28T00:16:41;97507.94;;;11.28;52.77
68476;BME280;55464;48.266;14.188;2024-02-28T00:19:07;97527.06;;;11.37;53.13
68476;BME280;55464;48.266;14.188;2024-02-28T00:21:32;97519.75;;;11.44;52.68
68476;BME280;55464;48.266;14.188;2024-02-28T00:23:57;97516.19;;;11.44;52.35
68476;BME280;55464;48.266;14.188;2024-02-28T00:26:23;97530.88;;;11.48;52.49
68476;BME280;55464;48.266;14.188;2024-02-28T00:28:48;97525.00;;;11.49;52.42
68476;BME280;55464;48.266;14.188;2024-02-28T00:31:14;97525.53;;;11.39;52.70
68476;BME280;55464;48.266;14.188;2024-02-28T00:33:39;97525.97;;;11.25;53.22
68476;BME280;55464;48.266;14.188;2024-02-28T00:36:04;97537.75;;;11.22;53.35
68476;BME280;55464;48.266;14.188;2024-02-28T00:38:30;97541.13;;;11.31;53.06
68476;BME280;55464;48.266;14.188;2024-02-28T00:40:56;97535.41;;;11.08;53.58
68476;BME280;55464;48.266;14.188;2024-02-28T00:43:21;97547.84;;;11.02;53.99
68476;BME280;55464;48.266;14.188;2024-02-28T00:45:46;97533.34;;;11.05;53.79
68476;BME280;55464;48.266;14.188;2024-02-28T00:48:12;97535.47;;;10.96;53.60
68476;BME280;55464;48.266;14.188;2024-02-28T00:50:37;97551.88;;;11.21;53.55
68476;BME280;55464;48.266;14.188;2024-02-28T00:53:03;97549.56;;;11.23;53.19
68476;BME280;55464;48.266;14.188;2024-02-28T00:55:28;97543.69;;;11.08;53.47
68476;BME280;55464;48.266;14.188;2024-02-28T00:57:53;97557.84;;;11.23;52.91
68476;BME280;55464;48.266;14.188;2024-02-28T01:00:19;97557.50;;;11.24;52.99
68476;BME280;55464;48.266;14.188;2024-02-28T01:02:44;97543.53;;;11.33;52.90
68476;BME280;55464;48.266;14.188;2024-02-28T01:05:10;97549.56;;;11.39;52.34
68476;BME280;55464;48.266;14.188;2024-02-28T01:07:35;97542.09;;;11.39;52.13
68476;BME280;55464;48.266;14.188;2024-02-28T01:10:02;97550.53;;;11.46;52.20
68476;BME280;55464;48.266;14.188;2024-02-28T01:12:27;97560.97;;;11.37;51.69
68476;BME280;55464;48.266;14.188;2024-02-28T01:14:53;97554.66;;;11.37;51.79
68476;BME280;55464;48.266;14.188;2024-02-28T01:17:19;97565.50;;;11.29;51.13
68476;BME280;55464;48.266;14.188;2024-02-28T01:19:44;97557.50;;;10.80;52.31
68476;BME280;55464;48.266;14.188;2024-02-28T01:22:09;97581.03;;;10.77;53.24
68476;BME280;55464;48.266;14.188;2024-02-28T01:24:35;97592.59;;;10.55;53.91
68476;BME280;55464;48.266;14.188;2024-02-28T01:27:02;97596.97;;;10.56;54.20
68476;BME280;55464;48.266;14.188;2024-02-28T01:29:28;97586.78;;;10.44;54.84
68476;BME280;55464;48.266;14.188;2024-02-28T01:31:55;97598.16;;;10.43;55.13
68476;BME280;55464;48.266;14.188;2024-02-28T01:34:21;97592.09;;;10.37;54.89
68476;BME280;55464;48.266;14.188;2024-02-28T01:36:46;97581.16;;;10.28;54.59
68476;BME280;55464;48.266;14.188;2024-02-28T01:39:12;97596.09;;;10.52;54.15
68476;BME280;55464;48.266;14.188;2024-02-28T01:41:37;97598.19;;;10.71;53.72
68476;BME280;55464;48.266;14.188;2024-02-28T01:44:02;97597.84;;;10.72;53.53
68476;BME280;55464;48.266;14.188;2024-02-28T01:46:29;97595.91;;;10.73;53.83
68476;BME280;55464;48.266;14.188;2024-02-28T01:48:55;97598.47;;;10.82;53.77
68476;BME280;55464;48.266;14.188;2024-02-28T01:51:22;97582.75;;;10.82;53.10
68476;BME280;55464;48.266;14.188;2024-02-28T01:53:50;97595.94;;;10.89;52.93
68476;BME280;55464;48.266;14.188;2024-02-28T01:56:16;97600.44;;;10.81;53.20
68476;BME280;55464;48.266;14.188;2024-02-28T01:58:45;97596.31;;;10.87;53.15
68476;BME280;55464;48.266;14.188;2024-02-28T02:01:12;97592.78;;;10.74;53.55
68476;BME280;55464;48.266;14.188;2024-02-28T02:03:38;97611.53;;;10.97;52.96
68476;BME280;55464;48.266;14.188;2024-02-28T02:06:04;97608.13;;;10.88;52.87
68476;BME280;55464;48.266;14.188;2024-02-28T02:08:30;97620.00;;;11.04;52.83
68476;BME280;55464;48.266;14.188;2024-02-28T02:10:56;97616.63;;;10.83;52.99
68476;BME280;55464;48.266;14.188;2024-02-28T02:13:22;97611.91;;;10.83;52.61
68476;BME280;55464;48.266;14.188;2024-02-28T02:15:47;97627.66;;;10.83;53.36
68476;BME280;55464;48.266;14.188;2024-02-28T02:18:12;97626.31;;;10.76;53.26
68476;BME280;55464;48.266;14.188;2024-02-28T02:20:42;97624.50;;;10.68;53.48
68476;BME280;55464;48.266;14.188;2024-02-28T02:23:09;97630.13;;;10.72;53.05
68476;BME280;55464;48.266;14.188;2024-02-28T02:25:45;97636.38;;;10.85;53.25
68476;BME280;55464;48.266;14.188;2024-02-28T02:28:11;97600.28;;;10.62;53.04
68476;BME280;55464;48.266;14.188;2024-02-28T02:30:37;97642.72;;;10.85;53.38
68476;BME280;55464;48.266;14.188;2024-02-28T02:33:03;97631.31;;;10.87;52.61
68476;BME280;55464;48.266;14.188;2024-02-28T02:35:29;97648.09;;;10.94;52.78
68476;BME280;55464;48.266;14.188;2024-02-28T02:37:54;97658.06;;;10.98;52.58
68476;BME280;55464;48.266;14.188;2024-02-28T02:40:20;97648.28;;;10.73;53.33
68476;BME280;55464;48.266;14.188;2024-02-28T02:42:45;97664.66;;;10.82;53.06
68476;BME280;55464;48.266;14.188;2024-02-28T02:45:11;97659.91;;;10.94;52.96
68476;BME280;55464;48.266;14.188;2024-02-28T02:47:36;97660.16;;;10.89;52.94
68476;BME280;55464;48.266;14.188;2024-02-28T02:50:02;97660.97;;;10.90;52.71
68476;BME280;55464;48.266;14.188;2024-02-28T02:52:28;97667.13;;;10.99;53.13
68476;BME280;55464;48.266;14.188;2024-02-28T02:54:53;97654.41;;;10.94;53.04
68476;BME280;55464;48.266;14.188;2024-02-28T02:57:20;97630.78;;;10.81;53.08
68476;BME280;55464;48.266;14.188;2024-02-28T02:59:45;97639.59;;;10.87;52.74
68476;BME280;55464;48.266;14.188;2024-02-28T03:02:11;97617.03;;;10.69;53.23
68476;BME280;55464;48.266;14.188;2024-02-28T03:04:36;97645.81;;;10.84;53.08
68476;BME280;55464;48.266;14.188;2024-02-28T03:07:02;97641.91;;;10.85;53.05
68476;BME280;55464;48.266;14.188;2024-02-28T03:09:27;97643.31;;;10.78;53.19
68476;BME280;55464;48.266;14.188;2024-02-28T03:11:53;97646.75;;;10.75;53.47
68476;BME280;55464;48.266;14.188;2024-02-28T03:14:18;97665.38;;;10.78;53.28
68476;BME280;55464;48.266;14.188;2024-02-28T03:16:45;97668.00;;;10.87;53.25
68476;BME280;55464;48.266;14.188;2024-02-28T03:19:13;97672.69;;;10.87;53.02
68476;BME280;55464;48.266;14.188;2024-02-28T03:21:38;97678.78;;;10.92;53.14
68476;BME280;55464;48.266;14.188;2024-02-28T03:24:03;97689.19;;;10.99;53.15
68476;BME280;55464;48.266;14.188;2024-02-28T03:26:29;97681.06;;;10.90;52.88
68476;BME280;55464;48.266;14.188;2024-02-28T03:28:54;97682.19;;;10.61;53.85
68476;BME280;55464;48.266;14.188;2024-02-28T03:31:20;97670.31;;;10.73;53.36
68476;BME280;55464;48.266;14.188;2024-02-28T03:33:45;97685.78;;;10.90;53.04
68476;BME280;55464;48.266;14.188;2024-02-28T03:36:12;97680.34;;;10.93;53.09
68476;BME280;55464;48.266;14.188;2024-02-28T03:38:37;97661.53;;;10.83;53.23
68476;BME280;55464;48.266;14.188;2024-02-28T03:41:03;97658.25;;;10.65;53.89
68476;BME280;55464;48.266;14.188;2024-02-28T03:43:28;97667.13;;;10.58;54.34
68476;BME280;55464;48.266;14.188;2024-02-28T03:45:54;97670.56;;;10.68;53.63
68476;BME280;55464;48.266;14.188;2024-02-28T03:48:19;97660.88;;;10.74;53.72
68476;BME280;55464;48.266;14.188;2024-02-28T03:50:45;97651.63;;;10.66;53.07
68476;BME280;55464;48.266;14.188;2024-02-28T03:53:10;97654.03;;;10.68;53.91
68476;BME280;55464;48.266;14.188;2024-02-28T03:55:36;97664.00;;;10.72;53.23
68476;BME280;55464;48.266;14.188;2024-02-28T03:58:03;97668.81;;;10.75;53.34
68476;BME280;55464;48.266;14.188;2024-02-28T04:00:28;97674.78;;;10.77;53.50
68476;BME280;55464;48.266;14.188;2024-02-28T04:02:53;97678.69;;;10.76;53.08
68476;BME280;55464;48.266;14.188;2024-02-28T04:05:19;97695.34;;;10.80;53.45
68476;BME280;55464;48.266;14.188;2024-02-28T04:07:44;97697.16;;;10.88;53.28
68476;BME280;55464;48.266;14.188;2024-02-28T04:10:10;97705.31;;;10.85;53.35
68476;BME280;55464;48.266;14.188;2024-02-28T04:12:36;97709.38;;;10.75;53.72
68476;BME280;55464;48.266;14.188;2024-02-28T04:15:02;97723.06;;;10.59;54.31
68476;BME280;55464;48.266;14.188;2024-02-28T04:17:28;97714.06;;;10.25;55.57
68476;BME280;55464;48.266;14.188;2024-02-28T04:19:53;97725.75;;;10.10;56.11
68476;BME280;55464;48.266;14.188;2024-02-28T04:22:19;97716.59;;;10.06;56.19
68476;BME280;55464;48.266;14.188;2024-02-28T04:24:44;97715.69;;;10.14;56.23
68476;BME280;55464;48.266;14.188;2024-02-28T04:27:09;97723.16;;;10.13;56.21
68476;BME280;55464;48.266;14.188;2024-02-28T04:29:37;97730.47;;;10.21;55.92
68476;BME280;55464;48.266;14.188;2024-02-28T04:32:03;97716.25;;;10.07;55.69
68476;BME280;55464;48.266;14.188;2024-02-28T04:34:28;97722.66;;;10.11;56.01
68476;BME280;55464;48.266;14.188;2024-02-28T04:36:54;97725.53;;;10.02;56.13
68476;BME280;55464;48.266;14.188;2024-02-28T04:39:19;97738.63;;;10.18;55.88
68476;BME280;55464;48.266;14.188;2024-02-28T04:41:44;97740.38;;;10.22;55.89
68476;BME280;55464;48.266;14.188;2024-02-28T04:44:10;97744.81;;;10.15;55.87
68476;BME280;55464;48.266;14.188;2024-02-28T04:46:37;97750.22;;;10.11;55.82
68476;BME280;55464;48.266;14.188;2024-02-28T04:49:02;97746.88;;;10.06;56.27
68476;BME280;55464;48.266;14.188;2024-02-28T04:51:27;97725.06;;;10.00;56.44
68476;BME280;55464;48.266;14.188;2024-02-28T04:53:53;97729.88;;;9.91;56.44
68476;BME280;55464;48.266;14.188;2024-02-28T04:56:18;97737.03;;;10.05;56.33
68476;BME280;55464;48.266;14.188;2024-02-28T04:58:44;97736.44;;;10.11;56.32
68476;BME280;55464;48.266;14.188;2024-02-28T05:01:09;97749.50;;;10.02;56.25
68476;BME280;55464;48.266;14.188;2024-02-28T05:03:34;97727.47;;;9.90;56.89
68476;BME280;55464;48.266;14.188;2024-02-28T05:06:00;97747.56;;;10.15;56.10
68476;BME280;55464;48.266;14.188;2024-02-28T05:08:25;97744.91;;;9.94;56.86
68476;BME280;55464;48.266;14.188;2024-02-28T05:10:52;97749.91;;;9.79;57.50
68476;BME280;55464;48.266;14.188;2024-02-28T05:13:18;97764.91;;;10.03;56.82
68476;BME280;55464;48.266;14.188;2024-02-28T05:15:43;97763.75;;;10.04;57.02
68476;BME280;55464;48.266;14.188;2024-02-28T05:18:09;97770.75;;;10.01;56.91
68476;BME280;55464;48.266;14.188;2024-02-28T05:20:34;97765.34;;;9.93;57.63
68476;BME280;55464;48.266;14.188;2024-02-28T05:22:59;97761.72;;;10.13;56.93
68476;BME280;55464;48.266;14.188;2024-02-28T05:25:25;97772.75;;;10.26;56.63
68476;BME280;55464;48.266;14.188;2024-02-28T05:27:50;97774.16;;;10.44;56.08
68476;BME280;55464;48.266;14.188;2024-02-28T05:30:16;97776.44;;;10.54;55.46
68476;BME280;55464;48.266;14.188;2024-02-28T05:32:41;97778.53;;;10.45;55.54
68476;BME280;55464;48.266;14.188;2024-02-28T05:35:07;97784.25;;;10.65;55.19
68476;BME280;55464;48.266;14.188;2024-02-28T05:37:33;97776.78;;;10.53;55.54
68476;BME280;55464;48.266;14.188;2024-02-28T05:39:59;97784.94;;;10.62;55.16
68476;BME280;55464;48.266;14.188;2024-02-28T05:42:25;97785.50;;;10.67;55.22
68476;BME280;55464;48.266;14.188;2024-02-28T05:44:50;97793.22;;;10.62;55.52
68476;BME280;55464;48.266;14.188;2024-02-28T05:47:16;97809.84;;;10.53;56.32
68476;BME280;55464;48.266;14.188;2024-02-28T05:49:42;97801.94;;;10.51;55.81
68476;BME280;55464;48.266;14.188;2024-02-28T05:52:07;97810.19;;;10.51;56.16
68476;BME280;55464;48.266;14.188;2024-02-28T05:54:32;97819.63;;;10.63;55.91
68476;BME280;55464;48.266;14.188;2024-02-28T05:57:00;97821.22;;;10.51;55.91
68476;BME280;55464;48.266;14.188;2024-02-28T05:59:27;97815.34;;;10.40;56.68
68476;BME280;55464;48.266;14.188;2024-02-28T06:01:52;97841.09;;;10.57;55.92
68476;BME280;55464;48.266;14.188;2024-02-28T06:04:18;97842.59;;;10.54;55.75
68476;BME280;55464;48.266;14.188;2024-02-28T06:06:43;97842.00;;;10.49;56.31
68476;BME280;55464;48.266;14.188;2024-02-28T06:09:09;97848.44;;;10.53;56.81
68476;BME280;55464;48.266;14.188;2024-02-28T06:11:34;97847.44;;;10.70;56.23
68476;BME280;55464;48.266;14.188;2024-02-28T06:14:00;97846.50;;;10.78;55.34
68476;BME280;55464;48.266;14.188;2024-02-28T06:16:27;97849.63;;;10.76;55.11
68476;BME280;55464;48.266;14.188;2024-02-28T06:18:52;97848.78;;;10.64;56.37
68476;BME280;55464;48.266;14.188;2024-02-28T06:21:17;97848.66;;;10.60;56.60
68476;BME280;55464;48.266;14.188;2024-02-28T06:23:43;97849.84;;;10.71;55.41
68476;BME280;55464;48.266;14.188;2024-02-28T06:26:08;97865.00;;;10.90;55.36
68476;BME280;55464;48.266;14.188;2024-02-28T06:28:41;97863.28;;;10.85;55.14
68476;BME280;55464;48.266;14.188;2024-02-28T06:31:15;97859.59;;;10.69;56.32
68476;BME280;55464;48.266;14.188;2024-02-28T06:33:41;97870.03;;;10.63;56.76
68476;BME280;55464;48.266;14.188;2024-02-28T06:36:06;97865.09;;;10.56;57.32
68476;BME280;55464;48.266;14.188;2024-02-28T06:38:32;97866.59;;;10.54;57.64
68476;BME280;55464;48.266;14.188;2024-02-28T06:40:57;97861.63;;;10.47;57.48
68476;BME280;55464;48.266;14.188;2024-02-28T06:43:23;97874.03;;;10.53;57.61
68476;BME280;55464;48.266;14.188;2024-02-28T06:45:48;97870.25;;;10.58;57.90
68476;BME280;55464;48.266;14.188;2024-02-28T06:48:15;97873.25;;;10.53;57.29
68476;BME280;55464;48.266;14.188;2024-02-28T06:50:41;97883.81;;;10.63;57.19
68476;BME280;55464;48.266;14.188;2024-02-28T06:53:06;97885.69;;;10.71;56.84
68476;BME280;55464;48.266;14.188;2024-02-28T06:55:32;97884.75;;;10.67;57.06
68476;BME280;55464;48.266;14.188;2024-02-28T06:57:57;97878.66;;;10.62;57.30
68476;BME280;55464;48.266;14.188;2024-02-28T07:00:22;97876.13;;;10.69;56.78
68476;BME280;55464;48.266;14.188;2024-02-28T07:02:48;97895.19;;;10.74;56.81
68476;BME280;55464;48.266;14.188;2024-02-28T07:05:13;97896.00;;;10.74;56.84
68476;BME280;55464;48.266;14.188;2024-02-28T07:07:39;97887.03;;;10.65;57.02
68476;BME280;55464;48.266;14.188;2024-02-28T07:10:04;97905.91;;;10.75;57.14
68476;BME280;55464;48.266;14.188;2024-02-28T07:12:30;97897.84;;;10.83;56.44
68476;BME280;55464;48.266;14.188;2024-02-28T07:14:55;97889.69;;;10.86;55.94
68476;BME280;55464;48.266;14.188;2024-02-28T07:17:21;97903.38;;;10.95;55.92
68476;BME280;55464;48.266;14.188;2024-02-28T07:19:47;97895.31;;;10.90;55.74
68476;BME280;55464;48.266;14.188;2024-02-28T07:22:12;97908.44;;;10.93;55.81
68476;BME280;55464;48.266;14.188;2024-02-28T07:24:39;97916.25;;;10.91;56.23
68476;BME280;55464;48.266;14.188;2024-02-28T07:27:04;97912.66;;;10.90;56.50
68476;BME280;55464;48.266;14.188;2024-02-28T07:29:30;97901.19;;;10.88;56.38
68476;BME280;55464;48.266;14.188;2024-02-28T07:31:55;97918.78;;;10.96;56.41
68476;BME280;55464;48.266;14.188;2024-02-28T07:34:20;97922.78;;;10.98;55.62
68476;BME280;55464;48.266;14.188;2024-02-28T07:36:46;97929.47;;;10.97;56.35
68476;BME280;55464;48.266;14.188;2024-02-28T07:39:11;97929.72;;;11.05;55.62
68476;BME280;55464;48.266;14.188;2024-02-28T07:41:40;97917.84;;;10.92;56.48
68476;BME280;55464;48.266;14.188;2024-02-28T07:44:09;97922.69;;;10.95;56.60
68476;BME280;55464;48.266;14.188;2024-02-28T07:46:36;97928.09;;;10.91;57.20
68476;BME280;55464;48.266;14.188;2024-02-28T07:49:02;97920.16;;;10.90;57.02
68476;BME280;55464;48.266;14.188;2024-02-28T07:51:28;97942.56;;;11.01;57.47
68476;BME280;55464;48.266;14.188;2024-02-28T07:53:53;97951.06;;;11.08;57.08
68476;BME280;55464;48.266;14.188;2024-02-28T07:56:20;97950.38;;;11.11;55.74
68476;BME280;55464;48.266;14.188;2024-02-28T07:58:45;97949.59;;;11.10;55.31
68476;BME280;55464;48.266;14.188;2024-02-28T08:01:11;97946.47;;;11.00;55.89
68476;BME280;55464;48.266;14.188;2024-02-28T08:03:37;97963.47;;;10.89;57.03
68476;BME280;55464;48.266;14.188;2024-02-28T08:06:03;97944.91;;;10.65;57.59
68476;BME280;55464;48.266;14.188;2024-02-28T08:08:28;97959.41;;;10.74;57.47
68476;BME280;55464;48.266;14.188;2024-02-28T08:10:54;97963.13;;;10.78;57.29
68476;BME280;55464;48.266;14.188;2024-02-28T08:13:19;97970.13;;;10.88;57.14
68476;BME280;55464;48.266;14.188;2024-02-28T08:15:45;97964.59;;;10.88;57.24
68476;BME280;55464;48.266;14.188;2024-02-28T08:18:10;97962.06;;;10.83;56.48
68476;BME280;55464;48.266;14.188;2024-02-28T08:20:37;97963.94;;;10.91;56.37
68476;BME280;55464;48.266;14.188;2024-02-28T08:23:03;97969.22;;;10.96;56.46
68476;BME280;55464;48.266;14.188;2024-02-28T08:25:29;97976.81;;;11.00;56.20
68476;BME280;55464;48.266;14.188;2024-02-28T08:27:54;97980.72;;;10.98;56.38
68476;BME280;55464;48.266;14.188;2024-02-28T08:30:20;97985.88;;;11.00;56.36
68476;BME280;55464;48.266;14.188;2024-02-28T08:32:45;97982.22;;;10.96;56.48
68476;BME280;55464;48.266;14.188;2024-02-28T08:35:10;97994.63;;;11.14;56.28
68476;BME280;55464;48.266;14.188;2024-02-28T08:37:38;97994.88;;;11.22;56.19
68476;BME280;55464;48.266;14.188;2024-02-28T08:40:04;97990.06;;;11.19;56.36
68476;BME280;55464;48.266;14.188;2024-02-28T08:42:30;97987.41;;;11.22;57.00
68476;BME280;55464;48.266;14.188;2024-02-28T08:44:56;97992.47;;;11.32;56.38
68476;BME280;55464;48.266;14.188;2024-02-28T08:47:24;97995.09;;;11.41;55.99
68476;BME280;55464;48.266;14.188;2024-02-28T08:49:53;98002.13;;;11.51;55.80
68476;BME280;55464;48.266;14.188;2024-02-28T08:52:19;98008.78;;;11.50;54.88
68476;BME280;55464;48.266;14.188;2024-02-28T08:54:45;98009.38;;;11.43;54.87
68476;BME280;55464;48.266;14.188;2024-02-28T08:57:11;98008.94;;;11.53;55.02
68476;BME280;55464;48.266;14.188;2024-02-28T08:59:39;98004.66;;;11.56;54.87
68476;BME280;55464;48.266;14.188;2024-02-28T09:02:05;98004.78;;;11.60;54.71
68476;BME280;55464;48.266;14.188;2024-02-28T09:04:31;98008.00;;;11.62;55.05
68476;BME280;55464;48.266;14.188;2024-02-28T09:06:57;98008.34;;;11.60;55.18
68476;BME280;55464;48.266;14.188;2024-02-28T09:09:22;98007.06;;;11.70;54.78
68476;BME280;55464;48.266;14.188;2024-02-28T09:11:48;98011.56;;;11.75;54.59
68476;BME280;55464;48.266;14.188;2024-02-28T09:14:13;98000.97;;;11.77;54.60
68476;BME280;55464;48.266;14.188;2024-02-28T09:16:38;98007.75;;;11.79;54.88
68476;BME280;55464;48.266;14.188;2024-02-28T09:19:04;98010.28;;;11.84;54.59
68476;BME280;55464;48.266;14.188;2024-02-28T09:21:30;97997.50;;;11.80;54.51
68476;BME280;55464;48.266;14.188;2024-02-28T09:23:55;98023.66;;;11.95;54.40
68476;BME280;55464;48.266;14.188;2024-02-28T09:26:21;98005.00;;;11.91;54.47
68476;BME280;55464;48.266;14.188;2024-02-28T09:28:46;98008.06;;;11.90;54.43
68476;BME280;55464;48.266;14.188;2024-02-28T09:31:12;97990.59;;;11.86;54.64
68476;BME280;55464;48.266;14.188;2024-02-28T09:33:37;98007.28;;;12.02;54.50
68476;BME280;55464;48.266;14.188;2024-02-28T09:36:04;98015.22;;;12.03;54.99
68476;BME280;55464;48.266;14.188;2024-02-28T09:38:29;98016.59;;;12.09;54.26
68476;BME280;55464;48.266;14.188;2024-02-28T09:40:57;98009.69;;;12.03;54.17
68476;BME280;55464;48.266;14.188;2024-02-28T09:43:43;98019.22;;;12.18;53.92
68476;BME280;55464;48.266;14.188;2024-02-28T09:46:09;98014.75;;;12.14;53.48
68476;BME280;55464;48.266;14.188;2024-02-28T09:48:40;98030.75;;;12.20;53.93
68476;BME280;55464;48.266;14.188;2024-02-28T09:51:06;98035.00;;;12.18;54.07
68476;BME280;55464;48.266;14.188;2024-02-28T09:53:33;98038.56;;;12.18;54.25
68476;BME280;55464;48.266;14.188;2024-02-28T09:55:58;98030.75;;;12.20;54.33
68476;BME280;55464;48.266;14.188;2024-02-28T09:58:24;98025.34;;;12.12;54.27
68476;BME280;55464;48.266;14.188;2024-02-28T10:00:52;98040.50;;;12.18;54.79
68476;BME280;55464;48.266;14.188;2024-02-28T10:03:21;98039.28;;;12.15;54.10
68476;BME280;55464;48.266;14.188;2024-02-28T10:05:48;98043.03;;;12.23;54.80
68476;BME280;55464;48.266;14.188;2024-02-28T10:08:14;98047.31;;;12.20;54.77
68476;BME280;55464;48.266;14.188;2024-02-28T10:10:47;98042.72;;;11.87;55.74
68476;BME280;55464;48.266;14.188;2024-02-28T10:13:15;98070.91;;;12.18;55.29
68476;BME280;55464;48.266;14.188;2024-02-28T10:15:41;98062.84;;;12.25;54.70
68476;BME280;55464;48.266;14.188;2024-02-28T10:18:06;98058.47;;;12.24;54.61
68476;BME280;55464;48.266;14.188;2024-02-28T10:20:32;98065.25;;;12.26;54.16
68476;BME280;55464;48.266;14.188;2024-02-28T10:22:57;98071.44;;;12.36;54.01
68476;BME280;55464;48.266;14.188;2024-02-28T10:25:23;98070.88;;;12.30;54.16
68476;BME280;55464;48.266;14.188;2024-02-28T10:27:49;98079.38;;;12.37;54.11
68476;BME280;55464;48.266;14.188;2024-02-28T10:30:14;98075.03;;;12.36;54.02
68476;BME280;55464;48.266;14.188;2024-02-28T10:32:51;98068.78;;;12.39;53.90
68476;BME280;55464;48.266;14.188;2024-02-28T10:35:17;98080.66;;;12.40;54.07
68476;BME280;55464;48.266;14.188;2024-02-28T10:37:51;98079.94;;;12.43;54.00
68476;BME280;55464;48.266;14.188;2024-02-28T10:40:17;98079.16;;;12.42;54.05
68476;BME280;55464;48.266;14.188;2024-02-28T10:42:43;98082.34;;;12.44;54.00
68476;BME280;55464;48.266;14.188;2024-02-28T10:45:12;98056.97;;;12.26;54.51
68476;BME280;55464;48.266;14.188;2024-02-28T10:47:38;98061.66;;;12.38;53.97
68476;BME280;55464;48.266;14.188;2024-02-28T10:50:05;98080.19;;;12.50;54.32
68476;BME280;55464;48.266;14.188;2024-02-28T10:52:33;98062.75;;;12.49;54.00
68476;BME280;55464;48.266;14.188;2024-02-28T10:54:59;98081.19;;;12.58;53.61
68476;BME280;55464;48.266;14.188;2024-02-28T10:57:26;98062.41;;;12.51;53.35
68476;BME280;55464;48.266;14.188;2024-02-28T10:59:53;98076.56;;;12.62;53.66
68476;BME280;55464;48.266;14.188;2024-02-28T11:02:20;98057.66;;;12.64;53.32
68476;BME280;55464;48.266;14.188;2024-02-28T11:04:45;98064.25;;;12.59;53.69
68476;BME280;55464;48.266;14.188;2024-02-28T11:07:11;98066.06;;;12.67;53.52
68476;BME280;55464;48.266;14.188;2024-02-28T11:09:36;98057.53;;;12.60;53.54
68476;BME280;55464;48.266;14.188;2024-02-28T11:12:04;98062.78;;;12.78;53.44
68476;BME280;55464;48.266;14.188;2024-02-28T11:14:29;98058.31;;;12.73;53.61
68476;BME280;55464;48.266;14.188;2024-02-28T11:17:02;98058.97;;;12.82;53.44
68476;BME280;55464;48.266;14.188;2024-02-28T11:19:29;98055.84;;;12.84;53.30
68476;BME280;55464;48.266;14.188;2024-02-28T11:21:57;98058.25;;;12.85;53.42
68476;BME280;55464;48.266;14.188;2024-02-28T11:24:30;98046.75;;;12.83;53.41
68476;BME280;55464;48.266;14.188;2024-02-28T11:26:56;98020.19;;;12.66;53.40
68476;BME280;55464;48.266;14.188;2024-02-28T11:29:26;98047.28;;;12.89;53.26
68476;BME280;55464;48.266;14.188;2024-02-28T11:31:52;98054.41;;;12.90;53.47
68476;BME280;55464;48.266;14.188;2024-02-28T11:34:18;98038.47;;;12.83;53.14
68476;BME280;55464;48.266;14.188;2024-02-28T11:36:46;98059.44;;;13.00;52.48
68476;BME280;55464;48.266;14.188;2024-02-28T11:39:13;98033.13;;;12.91;52.55
68476;BME280;55464;48.266;14.188;2024-02-28T11:41:38;98051.88;;;12.97;52.32
68476;BME280;55464;48.266;14.188;2024-02-28T11:44:05;98059.78;;;12.99;52.33
68476;BME280;55464;48.266;14.188;2024-02-28T11:46:30;98062.22;;;13.00;52.19
68476;BME280;55464;48.266;14.188;2024-02-28T11:48:56;98055.44;;;12.98;52.39
68476;BME280;55464;48.266;14.188;2024-02-28T11:51:22;98045.06;;;12.95;52.80
68476;BME280;55464;48.266;14.188;2024-02-28T11:53:48;98063.94;;;13.05;52.29
68476;BME280;55464;48.266;14.188;2024-02-28T11:56:13;98061.50;;;13.03;52.49
68476;BME280;55464;48.266;14.188;2024-02-28T11:58:52;98061.34;;;13.12;52.57
68476;BME280;55464;48.266;14.188;2024-02-28T12:01:18;98063.31;;;13.12;52.29
68476;BME280;55464;48.266;14.188;2024-02-28T12:03:46;98056.97;;;13.11;52.83
68476;BME280;55464;48.266;14.188;2024-02-28T12:06:12;98062.63;;;13.15;53.00
68476;BME280;55464;48.266;14.188;2024-02-28T12:08:37;98067.59;;;13.09;52.40
68476;BME280;55464;48.266;14.188;2024-02-28T12:11:09;98069.41;;;13.17;52.49
68476;BME280;55464;48.266;14.188;2024-02-28T12:13:36;98072.94;;;13.18;52.72
68476;BME280;55464;48.266;14.188;2024-02-28T12:16:02;98057.34;;;13.10;52.65
68476;BME280;55464;48.266;14.188;2024-02-28T12:18:29;98065.91;;;13.20;52.54
68476;BME280;55464;48.266;14.188;2024-02-28T12:20:54;98073.56;;;13.11;51.97
68476;BME280;55464;48.266;14.188;2024-02-28T12:23:20;98069.75;;;13.16;52.29
68476;BME280;55464;48.266;14.188;2024-02-28T12:25:46;98067.19;;;12.95;52.42
68476;BME280;55464;48.266;14.188;2024-02-28T12:28:11;98078.38;;;12.98;52.60
68476;BME280;55464;48.266;14.188;2024-02-28T12:30:41;98072.03;;;12.98;52.19
68476;BME280;55464;48.266;14.188;2024-02-28T12:33:11;98060.97;;;12.98;52.51
68476;BME280;55464;48.266;14.188;2024-02-28T12:35:39;98062.81;;;12.94;53.05
68476;BME280;55464;48.266;14.188;2024-02-28T12:38:04;98069.06;;;12.91;53.15
68476;BME280;55464;48.266;14.188;2024-02-28T12:40:30;98048.88;;;12.90;53.11
68476;BME280;55464;48.266;14.188;2024-02-28T12:42:56;98060.72;;;13.03;53.03
68476;BME280;55464;48.266;14.188;2024-02-28T12:45:21;98060.00;;;13.06;52.79